Time,TemperatureF,DewpointF,PressureIn,WindDirection,WindDirectionDegrees,WindSpeedMPH,WindSpeedGustMPH,Humidity,HourlyPrecipIn,Conditions,Clouds,dailyrainin,SolarRadiationWatts/m^2,SoftwareType,DateUTC
2013-08-22 00:01:00,62.0,60.0,30.02,WSW,254,0.0,0.0,94,0.00,,,0.00,0,weatherlink.com 1.10,2013-08-22 04:01:00,
2013-08-22 00:17:00,61.8,60.0,30.02,WSW,254,0.0,0.0,94,0.00,,,0.00,0,weatherlink.com 1.10,2013-08-22 04:17:00,
2013-08-22 00:33:00,61.6,60.0,30.03,WSW,254,0.0,0.0,94,0.00,,,0.00,0,weatherlink.com 1.10,2013-08-22 04:33:00,
2013-08-22 00:48:00,61.3,60.0,30.03,WSW,254,0.0,0.0,94,0.00,,,0.00,0,weatherlink.com 1.10,2013-08-22 04:48:00,
2013-08-22 01:05:00,61.1,60.0,30.04,WSW,254,0.0,0.0,95,0.00,,,0.00,0,weatherlink.com 1.10,2013-08-22 05:05:00,
2013-08-22 01:21:00,60.9,60.0,30.04,WSW,254,0.0,0.0,95,0.00,,,0.00,0,weatherlink.com 1.10,2013-08-22 05:21:00,
2013-08-22 01:37:00,60.8,59.0,30.04,WSW,254,0.0,0.0,95,0.00,,,0.00,0,weatherlink.com 1.10,2013-08-22 05:37:00,
2013-08-22 01:53:00,60.7,59.0,30.04,WSW,254,0.0,0.0,95,0.00,,,0.00,0,weatherlink.com 1.10,2013-08-22 05:53:00,
2013-08-22 02:09:00,60.6,60.0,30.04,WSW,254,0.0,0.0,96,0.00,,,0.00,0,weatherlink.com 1.10,2013-08-22 06:09:00,
2013-08-22 02:25:00,60.5,59.0,30.04,WSW,254,0.0,0.0,96,0.00,,,0.00,0,weatherlink.com 1.10,2013-08-22 06:25:00,
2013-08-22 02:41:00,60.5,59.0,30.04,WSW,254,0.0,0.0,96,0.00,,,0.00,0,weatherlink.com 1.10,2013-08-22 06:41:00,
2013-08-22 02:57:00,60.4,59.0,30.04,WSW,254,0.0,0.0,96,0.00,,,0.00,0,weatherlink.com 1.10,2013-08-22 06:57:00,
2013-08-22 03:13:00,60.3,59.0,30.03,WSW,254,0.0,0.0,96,0.00,,,0.00,0,weatherlink.com 1.10,2013-08-22 07:13:00,
2013-08-22 03:29:00,60.2,59.0,30.03,WSW,254,0.0,0.0,96,0.00,,,0.00,0,weatherlink.com 1.10,2013-08-22 07:29:00,
2013-08-22 03:46:00,60.0,59.0,30.03,WSW,254,0.0,0.0,96,0.00,,,0.00,0,weatherlink.com 1.10,2013-08-22 07:46:00,
2013-08-22 04:02:00,59.9,59.0,30.03,WSW,254,0.0,0.0,96,0.00,,,0.00,0,weatherlink.com 1.10,2013-08-22 08:02:00,
2013-08-22 04:17:00,59.8,59.0,30.02,WSW,254,0.0,0.0,96,0.00,,,0.00,0,weatherlink.com 1.10,2013-08-22 08:17:00,
2013-08-22 04:33:00,59.7,59.0,30.02,WSW,254,0.0,0.0,96,0.00,,,0.00,0,weatherlink.com 1.10,2013-08-22 08:33:00,
2013-08-22 04:49:00,59.5,59.0,30.01,WSW,254,0.0,0.0,97,0.00,,,0.00,0,weatherlink.com 1.10,2013-08-22 08:49:00,
2013-08-22 05:06:00,59.5,59.0,30.00,WSW,254,0.0,0.0,97,0.00,,,0.00,0,weatherlink.com 1.10,2013-08-22 09:06:00,
2013-08-22 05:22:00,59.4,59.0,30.00,WSW,254,0.0,0.0,97,0.00,,,0.00,0,weatherlink.com 1.10,2013-08-22 09:22:00,
2013-08-22 05:38:00,59.4,59.0,29.99,WSW,254,0.0,0.0,97,0.00,,,0.00,0,weatherlink.com 1.10,2013-08-22 09:38:00,
2013-08-22 05:54:00,59.3,59.0,29.99,WSW,254,0.0,0.0,97,0.00,,,0.00,0,weatherlink.com 1.10,2013-08-22 09:54:00,
2013-08-22 06:10:00,59.3,59.0,29.99,WSW,254,0.0,0.0,97,0.00,,,0.00,0,weatherlink.com 1.10,2013-08-22 10:10:00,
2013-08-22 06:26:00,59.4,59.0,29.99,WSW,254,0.0,0.0,97,0.00,,,0.00,19,weatherlink.com 1.10,2013-08-22 10:26:00,
2013-08-22 06:42:00,59.5,59.0,30.00,WSW,254,1.0,1.0,98,0.00,,,0.00,39,weatherlink.com 1.10,2013-08-22 10:42:00,
2013-08-22 08:35:00,72.0,68.0,29.98,WNW,294,3.0,4.0,88,0.00,,,0.00,362,weatherlink.com 1.10,2013-08-22 12:35:00,
2013-08-22 08:51:00,73.1,68.0,29.98,WNW,298,0.0,3.0,85,0.00,,,0.00,508,weatherlink.com 1.10,2013-08-22 12:51:00,
2013-08-22 09:07:00,73.8,68.0,29.98,WNW,285,0.0,5.0,83,0.00,,,0.00,276,weatherlink.com 1.10,2013-08-22 13:07:00,
2013-08-22 09:22:00,73.7,69.0,29.98,WNW,285,0.0,2.0,84,0.00,,,0.00,206,weatherlink.com 1.10,2013-08-22 13:22:00,
2013-08-22 09:39:00,73.5,69.0,29.98,WNW,285,1.0,1.0,85,0.00,,,0.00,169,weatherlink.com 1.10,2013-08-22 13:39:00,
2013-08-22 09:55:00,73.3,69.0,29.98,WNW,285,0.0,2.0,86,0.00,,,0.00,151,weatherlink.com 1.10,2013-08-22 13:55:00,
2013-08-22 10:11:00,73.3,69.0,29.98,SW,232,0.0,4.0,86,0.00,,,0.00,171,weatherlink.com 1.10,2013-08-22 14:11:00,
2013-08-22 10:27:00,73.7,69.0,29.98,SW,222,4.0,4.0,86,0.00,,,0.00,214,weatherlink.com 1.10,2013-08-22 14:27:00,
2013-08-22 10:43:00,73.6,69.0,29.98,SSW,210,0.0,5.0,85,0.00,,,0.00,230,weatherlink.com 1.10,2013-08-22 14:43:00,
2013-08-22 11:00:00,74.1,70.0,29.98,SW,219,0.0,3.0,86,0.00,,,0.00,278,weatherlink.com 1.10,2013-08-22 15:00:00,
2013-08-22 11:15:00,73.9,70.0,29.98,WSW,250,2.0,6.0,86,0.00,,,0.00,250,weatherlink.com 1.10,2013-08-22 15:15:00,
2013-08-22 11:31:00,74.1,70.0,29.98,West,275,0.0,5.0,87,0.00,,,0.00,248,weatherlink.com 1.10,2013-08-22 15:31:00,
2013-08-22 11:47:00,74.8,71.0,29.98,WSW,252,1.0,4.0,87,0.00,,,0.00,292,weatherlink.com 1.10,2013-08-22 15:47:00,
2013-08-22 12:04:00,75.6,71.0,29.97,WNW,284,4.0,5.0,85,0.00,,,0.00,404,weatherlink.com 1.10,2013-08-22 16:04:00,
2013-08-22 12:20:00,77.1,73.0,29.96,West,263,3.0,9.0,86,0.00,,,0.00,610,weatherlink.com 1.10,2013-08-22 16:20:00,
2013-08-22 12:36:00,75.4,71.0,29.96,SSW,207,3.0,8.0,87,0.00,,,0.00,135,weatherlink.com 1.10,2013-08-22 16:36:00,
2013-08-22 12:52:00,73.7,70.0,29.96,West,267,4.0,8.0,89,0.00,,,0.00,90,weatherlink.com 1.10,2013-08-22 16:52:00,
2013-08-22 13:07:00,72.9,70.0,29.96,West,270,4.0,9.0,91,0.00,,,0.00,111,weatherlink.com 1.10,2013-08-22 17:07:00,
2013-08-22 13:24:00,73.9,71.0,29.96,WNW,303,4.0,8.0,89,0.00,,,0.00,267,weatherlink.com 1.10,2013-08-22 17:24:00,
2013-08-22 13:40:00,75.7,71.0,29.94,WSW,253,3.0,7.0,86,0.00,,,0.00,791,weatherlink.com 1.10,2013-08-22 17:40:00,
2013-08-22 13:56:00,76.8,70.0,29.93,WNW,290,4.0,8.0,80,0.00,,,0.00,904,weatherlink.com 1.10,2013-08-22 17:56:00,
2013-08-22 14:12:00,78.9,72.0,29.92,WSW,242,2.0,10.0,80,0.00,,,0.00,770,weatherlink.com 1.10,2013-08-22 18:12:00,
2013-08-22 14:29:00,80.5,72.0,29.91,SSW,200,4.0,9.0,75,0.00,,,0.00,925,weatherlink.com 1.10,2013-08-22 18:29:00,
2013-08-22 14:44:00,78.8,70.0,29.90,West,267,3.0,12.0,75,0.00,,,0.00,571,weatherlink.com 1.10,2013-08-22 18:44:00,
2013-08-22 15:00:00,77.9,69.0,29.89,WNW,284,3.0,8.0,75,0.00,,,0.00,283,weatherlink.com 1.10,2013-08-22 19:00:00,
2013-08-22 15:17:00,76.3,69.0,29.89,WNW,293,0.0,6.0,78,0.00,,,0.00,204,weatherlink.com 1.10,2013-08-22 19:17:00,
2013-08-22 15:33:00,76.4,70.0,29.89,West,263,4.0,6.0,80,0.00,,,0.00,274,weatherlink.com 1.10,2013-08-22 19:33:00,
2013-08-22 15:49:00,77.1,70.0,29.88,SW,223,1.0,5.0,78,0.00,,,0.00,276,weatherlink.com 1.10,2013-08-22 19:49:00,
2013-08-22 16:05:00,79.6,71.0,29.88,WNW,287,0.0,9.0,74,0.00,,,0.00,638,weatherlink.com 1.10,2013-08-22 20:05:00,
2013-08-22 16:20:00,78.7,69.0,29.87,West,269,3.0,12.0,73,0.00,,,0.00,469,weatherlink.com 1.10,2013-08-22 20:20:00,
2013-08-22 16:37:00,78.5,70.0,29.87,South,189,2.0,10.0,74,0.00,,,0.00,373,weatherlink.com 1.10,2013-08-22 20:37:00,
2013-08-22 16:53:00,77.8,70.0,29.86,SW,219,1.0,7.0,78,0.00,,,0.00,350,weatherlink.com 1.10,2013-08-22 20:53:00,
2013-08-22 17:09:00,78.0,71.0,29.86,West,263,0.0,7.0,79,0.00,,,0.00,288,weatherlink.com 1.10,2013-08-22 21:09:00,
2013-08-22 17:25:00,77.3,70.0,29.85,SSW,199,3.0,9.0,77,0.00,,,0.00,250,weatherlink.com 1.10,2013-08-22 21:25:00,
2013-08-22 17:41:00,76.4,69.0,29.85,WSW,255,4.0,10.0,79,0.00,,,0.00,146,weatherlink.com 1.10,2013-08-22 21:41:00,
2013-08-22 17:56:00,75.7,69.0,29.85,SW,232,2.0,8.0,80,0.00,,,0.00,107,weatherlink.com 1.10,2013-08-22 21:56:00,
2013-08-22 18:13:00,75.0,69.0,29.85,WNW,292,0.0,6.0,82,0.00,,,0.00,120,weatherlink.com 1.10,2013-08-22 22:13:00,
2013-08-22 18:29:00,74.8,69.0,29.85,West,273,2.0,10.0,82,0.00,,,0.00,116,weatherlink.com 1.10,2013-08-22 22:29:00,
2013-08-22 18:45:00,74.2,70.0,29.85,SW,232,0.0,4.0,85,0.00,,,0.00,74,weatherlink.com 1.10,2013-08-22 22:45:00,
2013-08-22 19:01:00,73.2,69.0,29.85,WNW,284,0.0,8.0,87,0.00,,,0.00,49,weatherlink.com 1.10,2013-08-22 23:01:00,
2013-08-22 19:17:00,72.3,68.0,29.85,WSW,257,0.0,4.0,87,0.00,,,0.00,23,weatherlink.com 1.10,2013-08-22 23:17:00,
2013-08-22 19:34:00,71.2,68.0,29.85,SW,223,0.0,5.0,89,0.00,,,0.00,5,weatherlink.com 1.10,2013-08-22 23:34:00,
2013-08-22 19:49:00,70.3,67.0,29.85,West,269,0.0,3.0,90,0.00,,,0.00,0,weatherlink.com 1.10,2013-08-22 23:49:00,
2013-08-22 20:05:00,69.7,67.0,29.84,SSW,209,1.0,5.0,91,0.00,,,0.00,0,weatherlink.com 1.10,2013-08-23 00:05:00,
2013-08-22 20:21:00,69.1,67.0,29.84,SW,228,0.0,3.0,93,0.00,,,0.00,0,weatherlink.com 1.10,2013-08-23 00:21:00,
2013-08-22 20:37:00,68.4,67.0,29.85,SW,214,0.0,1.0,94,0.00,,,0.00,0,weatherlink.com 1.10,2013-08-23 00:37:00,
2013-08-22 20:53:00,68.1,67.0,29.85,WSW,245,0.0,2.0,95,0.00,,,0.00,0,weatherlink.com 1.10,2013-08-23 00:53:00,
2013-08-22 21:10:00,67.9,67.0,29.85,WSW,252,0.0,3.0,96,0.00,,,0.00,0,weatherlink.com 1.10,2013-08-23 01:10:00,
2013-08-22 21:25:00,67.7,67.0,29.86,WSW,254,0.0,1.0,97,0.00,,,0.00,0,weatherlink.com 1.10,2013-08-23 01:25:00,
2013-08-22 21:41:00,67.7,67.0,29.86,WSW,255,0.0,5.0,97,0.00,,,0.00,0,weatherlink.com 1.10,2013-08-23 01:41:00,
2013-08-22 21:57:00,67.6,67.0,29.85,SW,218,0.0,4.0,97,0.00,,,0.00,0,weatherlink.com 1.10,2013-08-23 01:57:00,
2013-08-22 22:13:00,67.6,67.0,29.85,West,271,1.0,5.0,97,0.00,,,0.00,0,weatherlink.com 1.10,2013-08-23 02:13:00,
2013-08-22 22:46:00,68.0,67.0,29.85,WSW,245,1.0,4.0,97,0.00,,,0.00,0,weatherlink.com 1.10,2013-08-23 02:46:00,
2013-08-22 23:02:00,68.0,67.0,29.85,West,276,1.0,4.0,97,0.00,,,0.00,0,weatherlink.com 1.10,2013-08-23 03:02:00,
2013-08-22 23:17:00,68.1,68.0,29.85,West,266,4.0,4.0,98,0.00,,,0.00,0,weatherlink.com 1.10,2013-08-23 03:17:00,
2013-08-22 23:33:00,68.3,68.0,29.86,West,278,3.0,4.0,97,0.00,,,0.00,0,weatherlink.com 1.10,2013-08-23 03:33:00,
2013-08-22 23:49:00,68.3,68.0,29.86,NW,318,1.0,2.0,97,0.00,,,0.00,0,weatherlink.com 1.10,2013-08-23 03:49:00,